sensor_id;sensor_type;location;lat;lon;timestamp;pressure;altitude;pressure_sealevel;temperature;humidity
34237;BME280;20501;45.956;13.632;2023-01-29T00:01:36;101382.13;;;8.85;45.65
34237;BME280;20501;45.956;13.632;2023-01-29T00:04:01;101385.72;;;9.84;44.51
34237;BME280;20501;45.956;13.632;2023-01-29T00:06:27;101381.47;;;8.81;46.19
34237;BME280;20501;45.956;13.632;2023-01-29T00:08:52;101393.47;;;9.89;44.69
34237;BME280;20501;45.956;13.632;2023-01-29T00:11:17;101386.56;;;10.20;43.99
34237;BME280;20501;45.956;13.632;2023-01-29T00:13:44;101381.47;;;10.29;43.77
34237;BME280;20501;45.956;13.632;2023-01-29T00:16:10;101385.00;;;10.29;43.63
34237;BME280;20501;45.956;13.632;2023-01-29T00:18:39;101391.78;;;10.35;43.31
34237;BME280;20501;45.956;13.632;2023-01-29T00:21:16;101387.91;;;10.39;43.47
34237;BME280;20501;45.956;13.632;2023-01-29T00:23:42;101392.44;;;10.14;43.71
34237;BME280;20501;45.956;13.632;2023-01-29T00:26:08;101394.75;;;10.07;44.23
34237;BME280;20501;45.956;13.632;2023-01-29T00:28:34;101393.13;;;8.16;47.08
34237;BME280;20501;45.956;13.632;2023-01-29T00:31:09;101389.03;;;8.63;44.26
34237;BME280;20501;45.956;13.632;2023-01-29T00:33:35;101388.75;;;9.80;44.95
34237;BME280;20501;45.956;13.632;2023-01-29T00:36:02;101392.19;;;9.57;44.84
34237;BME280;20501;45.956;13.632;2023-01-29T00:38:28;101403.16;;;5.36;51.69
34237;BME280;20501;45.956;13.632;2023-01-29T00:40:54;101397.59;;;4.40;55.29
34237;BME280;20501;45.956;13.632;2023-01-29T00:43:37;101400.16;;;3.71;55.73
34237;BME280;20501;45.956;13.632;2023-01-29T00:46:21;101393.38;;;4.00;56.88
34237;BME280;20501;45.956;13.632;2023-01-29T00:48:47;101398.72;;;5.83;54.30
34237;BME280;20501;45.956;13.632;2023-01-29T00:51:12;101397.88;;;5.18;52.58
34237;BME280;20501;45.956;13.632;2023-01-29T00:53:37;101393.69;;;8.08;50.13
34237;BME280;20501;45.956;13.632;2023-01-29T00:56:03;101402.03;;;9.08;46.73
34237;BME280;20501;45.956;13.632;2023-01-29T00:58:28;101407.13;;;9.74;45.13
34237;BME280;20501;45.956;13.632;2023-01-29T01:01:01;101395.22;;;6.72;48.50
34237;BME280;20501;45.956;13.632;2023-01-29T01:03:27;101403.34;;;7.28;51.84
34237;BME280;20501;45.956;13.632;2023-01-29T01:06:08;101401.75;;;8.87;46.76
34237;BME280;20501;45.956;13.632;2023-01-29T01:08:33;101407.78;;;6.72;53.43
34237;BME280;20501;45.956;13.632;2023-01-29T01:11:17;101406.53;;;8.43;48.60
34237;BME280;20501;45.956;13.632;2023-01-29T01:13:43;101405.91;;;9.54;45.94
34237;BME280;20501;45.956;13.632;2023-01-29T01:16:17;101410.47;;;10.02;44.74
34237;BME280;20501;45.956;13.632;2023-01-29T01:18:44;101414.94;;;9.16;46.81
34237;BME280;20501;45.956;13.632;2023-01-29T01:21:09;101407.63;;;5.99;51.22
34237;BME280;20501;45.956;13.632;2023-01-29T01:23:35;101413.25;;;6.99;52.46
34237;BME280;20501;45.956;13.632;2023-01-29T01:26:00;101408.16;;;9.10;47.34
34237;BME280;20501;45.956;13.632;2023-01-29T01:28:26;101410.44;;;9.78;45.58
34237;BME280;20501;45.956;13.632;2023-01-29T01:30:52;101414.00;;;10.03;44.94
34237;BME280;20501;45.956;13.632;2023-01-29T01:33:18;101417.16;;;10.21;44.51
34237;BME280;20501;45.956;13.632;2023-01-29T01:35:44;101407.78;;;8.91;47.46
34237;BME280;20501;45.956;13.632;2023-01-29T01:38:10;101425.00;;;6.08;50.22
34237;BME280;20501;45.956;13.632;2023-01-29T01:40:35;101429.06;;;7.74;50.15
34237;BME280;20501;45.956;13.632;2023-01-29T01:43:01;101424.69;;;6.29;50.46
34237;BME280;20501;45.956;13.632;2023-01-29T01:45:35;101412.72;;;6.49;48.08
34237;BME280;20501;45.956;13.632;2023-01-29T01:50:36;101419.09;;;9.46;46.49
34237;BME280;20501;45.956;13.632;2023-01-29T01:53:10;101416.84;;;10.01;45.34
34237;BME280;20501;45.956;13.632;2023-01-29T01:55:40;101415.66;;;10.17;44.59
34237;BME280;20501;45.956;13.632;2023-01-29T01:58:11;101415.84;;;9.78;44.49
34237;BME280;20501;45.956;13.632;2023-01-29T02:00:38;101413.84;;;9.69;43.64
34237;BME280;20501;45.956;13.632;2023-01-29T02:03:04;101419.22;;;10.17;44.71
34237;BME280;20501;45.956;13.632;2023-01-29T02:05:49;101420.72;;;9.49;46.02
34237;BME280;20501;45.956;13.632;2023-01-29T02:11:27;101416.31;;;9.96;45.54
34237;BME280;20501;45.956;13.632;2023-01-29T02:13:53;101419.28;;;8.67;46.06
34237;BME280;20501;45.956;13.632;2023-01-29T02:16:21;101412.31;;;8.90;46.80
34237;BME280;20501;45.956;13.632;2023-01-29T02:18:48;101410.69;;;9.99;45.49
34237;BME280;20501;45.956;13.632;2023-01-29T02:21:44;101415.06;;;10.25;44.45
34237;BME280;20501;45.956;13.632;2023-01-29T02:24:37;101408.38;;;8.30;49.32
34237;BME280;20501;45.956;13.632;2023-01-29T02:27:16;101405.75;;;7.19;49.17
34237;BME280;20501;45.956;13.632;2023-01-29T02:29:58;101408.22;;;5.72;53.16
34237;BME280;20501;45.956;13.632;2023-01-29T02:32:38;101416.25;;;6.80;54.13
34237;BME280;20501;45.956;13.632;2023-01-29T02:35:15;101418.81;;;8.34;49.76
34237;BME280;20501;45.956;13.632;2023-01-29T02:40:31;101427.41;;;7.44;49.04
34237;BME280;20501;45.956;13.632;2023-01-29T02:46:18;101432.06;;;10.02;45.46
34237;BME280;20501;45.956;13.632;2023-01-29T02:51:43;101441.50;;;10.32;44.58
34237;BME280;20501;45.956;13.632;2023-01-29T02:56:58;101437.06;;;8.16;47.60
34237;BME280;20501;45.956;13.632;2023-01-29T02:59:34;101442.25;;;8.73;49.16
34237;BME280;20501;45.956;13.632;2023-01-29T03:02:08;101449.13;;;8.51;49.45
34237;BME280;20501;45.956;13.632;2023-01-29T03:04:39;101448.06;;;6.57;53.03
34237;BME280;20501;45.956;13.632;2023-01-29T03:07:09;101455.22;;;6.42;51.24
34237;BME280;20501;45.956;13.632;2023-01-29T03:10:01;101456.56;;;8.60;49.67
34237;BME280;20501;45.956;13.632;2023-01-29T03:12:28;101453.34;;;9.70;46.36
34237;BME280;20501;45.956;13.632;2023-01-29T03:15:09;101455.31;;;9.92;45.90
34237;BME280;20501;45.956;13.632;2023-01-29T03:18:00;101447.69;;;8.05;47.00
34237;BME280;20501;45.956;13.632;2023-01-29T03:20:39;101450.84;;;8.52;49.83
34237;BME280;20501;45.956;13.632;2023-01-29T03:23:10;101444.69;;;9.78;46.67
34237;BME280;20501;45.956;13.632;2023-01-29T03:25:39;101450.00;;;9.16;47.99
34237;BME280;20501;45.956;13.632;2023-01-29T03:28:26;101449.03;;;8.78;47.39
34237;BME280;20501;45.956;13.632;2023-01-29T03:31:12;101462.50;;;9.17;47.37
34237;BME280;20501;45.956;13.632;2023-01-29T03:34:15;101463.84;;;7.21;51.60
34237;BME280;20501;45.956;13.632;2023-01-29T03:36:57;101467.75;;;5.79;55.22
34237;BME280;20501;45.956;13.632;2023-01-29T03:39:26;101456.28;;;8.37;50.47
34237;BME280;20501;45.956;13.632;2023-01-29T03:44:52;101445.44;;;9.42;47.12
34237;BME280;20501;45.956;13.632;2023-01-29T03:47:23;101443.19;;;9.98;45.63
34237;BME280;20501;45.956;13.632;2023-01-29T03:55:12;101443.00;;;10.12;45.10
34237;BME280;20501;45.956;13.632;2023-01-29T03:57:43;101448.97;;;10.29;45.06
34237;BME280;20501;45.956;13.632;2023-01-29T04:00:19;101450.75;;;10.17;45.53
34237;BME280;20501;45.956;13.632;2023-01-29T04:03:14;101458.72;;;9.20;47.85
34237;BME280;20501;45.956;13.632;2023-01-29T04:05:48;101465.88;;;8.42;46.12
34237;BME280;20501;45.956;13.632;2023-01-29T04:08:22;101457.56;;;9.11;48.14
34237;BME280;20501;45.956;13.632;2023-01-29T04:10:50;101451.19;;;7.65;48.72
34237;BME280;20501;45.956;13.632;2023-01-29T04:13:19;101457.13;;;7.00;51.78
34237;BME280;20501;45.956;13.632;2023-01-29T04:15:52;101464.66;;;5.05;54.64
34237;BME280;20501;45.956;13.632;2023-01-29T04:18:20;101464.69;;;6.93;54.44
34237;BME280;20501;45.956;13.632;2023-01-29T04:20:45;101468.03;;;8.77;49.67
34237;BME280;20501;45.956;13.632;2023-01-29T04:23:23;101461.09;;;9.74;46.31
34237;BME280;20501;45.956;13.632;2023-01-29T04:25:56;101464.25;;;7.71;49.70
34237;BME280;20501;45.956;13.632;2023-01-29T04:28:57;101464.47;;;9.02;48.55
34237;BME280;20501;45.956;13.632;2023-01-29T04:31:27;101456.63;;;7.78;49.59
34237;BME280;20501;45.956;13.632;2023-01-29T04:34:08;101461.50;;;7.15;50.79
34237;BME280;20501;45.956;13.632;2023-01-29T04:39:24;101453.56;;;9.04;48.71
34237;BME280;20501;45.956;13.632;2023-01-29T04:42:14;101458.94;;;9.80;46.13
34237;BME280;20501;45.956;13.632;2023-01-29T04:44:53;101461.59;;;6.99;51.30
34237;BME280;20501;45.956;13.632;2023-01-29T04:56:09;101461.94;;;4.89;56.08
34237;BME280;20501;45.956;13.632;2023-01-29T04:58:47;101454.03;;;7.06;54.62
34237;BME280;20501;45.956;13.632;2023-01-29T05:01:16;101449.44;;;8.06;51.62
34237;BME280;20501;45.956;13.632;2023-01-29T05:03:45;101448.84;;;9.57;47.37
34237;BME280;20501;45.956;13.632;2023-01-29T05:06:14;101450.94;;;10.02;45.77
34237;BME280;20501;45.956;13.632;2023-01-29T05:08:41;101444.28;;;10.19;45.58
34237;BME280;20501;45.956;13.632;2023-01-29T05:11:06;101444.84;;;10.12;45.17
34237;BME280;20501;45.956;13.632;2023-01-29T05:13:33;101451.16;;;8.47;46.86
34237;BME280;20501;45.956;13.632;2023-01-29T05:16:06;101455.25;;;7.43;50.01
34237;BME280;20501;45.956;13.632;2023-01-29T05:18:34;101452.22;;;6.92;49.60
34237;BME280;20501;45.956;13.632;2023-01-29T05:21:03;101444.91;;;7.23;48.34
34237;BME280;20501;45.956;13.632;2023-01-29T05:23:30;101450.78;;;6.11;49.81
34237;BME280;20501;45.956;13.632;2023-01-29T05:25:56;101458.28;;;5.08;53.46
34237;BME280;20501;45.956;13.632;2023-01-29T05:28:21;101463.53;;;6.97;54.28
34237;BME280;20501;45.956;13.632;2023-01-29T05:30:49;101468.09;;;7.95;49.81
34237;BME280;20501;45.956;13.632;2023-01-29T05:33:20;101461.63;;;7.70;48.81
34237;BME280;20501;45.956;13.632;2023-01-29T05:35:46;101470.50;;;5.46;51.43
34237;BME280;20501;45.956;13.632;2023-01-29T05:38:12;101463.19;;;4.82;54.64
34237;BME280;20501;45.956;13.632;2023-01-29T05:40:38;101472.00;;;5.02;52.73
34237;BME280;20501;45.956;13.632;2023-01-29T05:43:04;101479.34;;;5.80;51.36
34237;BME280;20501;45.956;13.632;2023-01-29T05:45:30;101475.13;;;7.55;50.82
34237;BME280;20501;45.956;13.632;2023-01-29T05:47:57;101477.59;;;8.81;48.54
34237;BME280;20501;45.956;13.632;2023-01-29T05:50:24;101471.78;;;8.34;46.17
34237;BME280;20501;45.956;13.632;2023-01-29T05:52:58;101479.44;;;8.80;48.26
34237;BME280;20501;45.956;13.632;2023-01-29T05:55:24;101477.53;;;9.58;45.59
34237;BME280;20501;45.956;13.632;2023-01-29T05:57:49;101477.19;;;9.76;45.83
34237;BME280;20501;45.956;13.632;2023-01-29T06:00:15;101474.00;;;7.87;47.15
34237;BME280;20501;45.956;13.632;2023-01-29T06:02:40;101473.81;;;7.19;48.77
34237;BME280;20501;45.956;13.632;2023-01-29T06:05:06;101475.69;;;7.61;49.34
34237;BME280;20501;45.956;13.632;2023-01-29T06:07:32;101473.19;;;7.99;46.74
34237;BME280;20501;45.956;13.632;2023-01-29T06:09:57;101483.97;;;7.28;50.65
34237;BME280;20501;45.956;13.632;2023-01-29T06:12:23;101475.88;;;9.19;47.85
34237;BME280;20501;45.956;13.632;2023-01-29T06:14:48;101491.72;;;9.86;45.86
34237;BME280;20501;45.956;13.632;2023-01-29T06:17:13;101490.50;;;8.50;46.28
34237;BME280;20501;45.956;13.632;2023-01-29T06:19:39;101498.75;;;9.26;47.78
34237;BME280;20501;45.956;13.632;2023-01-29T06:22:04;101499.22;;;9.94;45.90
34237;BME280;20501;45.956;13.632;2023-01-29T06:24:30;101495.50;;;9.47;45.62
34237;BME280;20501;45.956;13.632;2023-01-29T06:26:57;101496.56;;;9.81;46.16
34237;BME280;20501;45.956;13.632;2023-01-29T06:29:22;101507.19;;;10.09;45.29
34237;BME280;20501;45.956;13.632;2023-01-29T06:31:47;101495.06;;;8.75;44.64
34237;BME280;20501;45.956;13.632;2023-01-29T06:34:13;101499.38;;;9.04;45.13
34237;BME280;20501;45.956;13.632;2023-01-29T06:36:38;101502.41;;;8.99;45.65
34237;BME280;20501;45.956;13.632;2023-01-29T06:39:04;101507.03;;;9.49;47.21
34237;BME280;20501;45.956;13.632;2023-01-29T06:41:29;101511.66;;;8.42;45.57
34237;BME280;20501;45.956;13.632;2023-01-29T06:43:54;101511.78;;;5.25;54.97
34237;BME280;20501;45.956;13.632;2023-01-29T06:46:20;101529.06;;;6.80;49.51
34237;BME280;20501;45.956;13.632;2023-01-29T06:48:45;101520.47;;;5.13;54.27
34237;BME280;20501;45.956;13.632;2023-01-29T06:51:11;101526.56;;;5.82;55.26
34237;BME280;20501;45.956;13.632;2023-01-29T06:53:37;101531.13;;;7.49;52.16
34237;BME280;20501;45.956;13.632;2023-01-29T06:56:04;101532.59;;;9.30;47.97
34237;BME280;20501;45.956;13.632;2023-01-29T06:58:29;101532.63;;;7.53;48.25
34237;BME280;20501;45.956;13.632;2023-01-29T07:01:05;101543.97;;;6.23;53.82
34237;BME280;20501;45.956;13.632;2023-01-29T07:03:31;101545.53;;;8.86;49.08
34237;BME280;20501;45.956;13.632;2023-01-29T07:05:57;101537.53;;;7.75;50.75
34237;BME280;20501;45.956;13.632;2023-01-29T07:08:22;101541.97;;;5.95;53.22
34237;BME280;20501;45.956;13.632;2023-01-29T07:10:48;101540.78;;;8.90;49.01
34237;BME280;20501;45.956;13.632;2023-01-29T07:13:14;101546.13;;;9.80;46.48
34237;BME280;20501;45.956;13.632;2023-01-29T07:15:40;101555.78;;;8.94;47.00
34237;BME280;20501;45.956;13.632;2023-01-29T07:18:05;101548.56;;;9.96;45.84
34237;BME280;20501;45.956;13.632;2023-01-29T07:20:37;101553.84;;;8.96;46.25
34237;BME280;20501;45.956;13.632;2023-01-29T07:23:03;101561.84;;;9.36;47.86
34237;BME280;20501;45.956;13.632;2023-01-29T07:25:28;101563.81;;;8.81;46.94
34237;BME280;20501;45.956;13.632;2023-01-29T07:27:54;101556.34;;;9.12;45.50
34237;BME280;20501;45.956;13.632;2023-01-29T07:30:20;101571.34;;;7.36;51.80
34237;BME280;20501;45.956;13.632;2023-01-29T07:32:45;101573.16;;;9.28;47.83
34237;BME280;20501;45.956;13.632;2023-01-29T07:35:11;101571.41;;;9.02;44.77
34237;BME280;20501;45.956;13.632;2023-01-29T07:37:36;101576.69;;;6.46;50.46
34237;BME280;20501;45.956;13.632;2023-01-29T07:40:02;101581.84;;;5.85;56.53
34237;BME280;20501;45.956;13.632;2023-01-29T07:42:29;101576.75;;;8.21;51.09
34237;BME280;20501;45.956;13.632;2023-01-29T07:44:55;101583.38;;;8.97;48.58
34237;BME280;20501;45.956;13.632;2023-01-29T07:47:20;101576.44;;;9.84;46.68
34237;BME280;20501;45.956;13.632;2023-01-29T07:49:45;101570.59;;;8.04;47.21
34237;BME280;20501;45.956;13.632;2023-01-29T07:52:11;101586.44;;;9.70;46.60
34237;BME280;20501;45.956;13.632;2023-01-29T07:54:36;101578.56;;;8.75;45.05
34237;BME280;20501;45.956;13.632;2023-01-29T07:57:02;101575.28;;;8.30;46.93
34237;BME280;20501;45.956;13.632;2023-01-29T07:59:27;101581.59;;;6.54;49.05
34237;BME280;20501;45.956;13.632;2023-01-29T08:01:52;101571.31;;;5.82;51.20
34237;BME280;20501;45.956;13.632;2023-01-29T08:04:18;101574.00;;;5.82;50.89
34237;BME280;20501;45.956;13.632;2023-01-29T08:06:43;101577.69;;;6.59;49.45
34237;BME280;20501;45.956;13.632;2023-01-29T08:09:09;101580.19;;;6.62;49.64
34237;BME280;20501;45.956;13.632;2023-01-29T08:11:34;101574.00;;;7.07;48.56
34237;BME280;20501;45.956;13.632;2023-01-29T08:14:00;101576.94;;;6.57;49.35
34237;BME280;20501;45.956;13.632;2023-01-29T08:16:25;101581.47;;;6.09;50.63
34237;BME280;20501;45.956;13.632;2023-01-29T08:18:51;101589.78;;;6.82;49.48
34237;BME280;20501;45.956;13.632;2023-01-29T08:21:16;101592.06;;;7.92;49.28
34237;BME280;20501;45.956;13.632;2023-01-29T08:23:41;101582.97;;;7.36;47.40
34237;BME280;20501;45.956;13.632;2023-01-29T08:26:07;101592.84;;;8.35;48.36
34237;BME280;20501;45.956;13.632;2023-01-29T08:28:33;101589.84;;;7.98;46.27
34237;BME280;20501;45.956;13.632;2023-01-29T08:30:59;101584.03;;;7.77;46.68
34237;BME280;20501;45.956;13.632;2023-01-29T08:33:25;101583.69;;;7.96;46.64
34237;BME280;20501;45.956;13.632;2023-01-29T08:35:53;101586.41;;;9.19;46.78
34237;BME280;20501;45.956;13.632;2023-01-29T08:38:19;101585.94;;;7.75;45.97
34237;BME280;20501;45.956;13.632;2023-01-29T08:40:44;101580.16;;;7.38;46.64
34237;BME280;20501;45.956;13.632;2023-01-29T08:43:12;101568.53;;;7.95;47.76
34237;BME280;20501;45.956;13.632;2023-01-29T08:45:40;101567.19;;;7.73;46.89
34237;BME280;20501;45.956;13.632;2023-01-29T08:48:07;101575.97;;;7.77;46.81
34237;BME280;20501;45.956;13.632;2023-01-29T08:50:33;101573.44;;;7.88;46.33
34237;BME280;20501;45.956;13.632;2023-01-29T08:53:00;101580.19;;;7.52;46.49
34237;BME280;20501;45.956;13.632;2023-01-29T08:55:27;101575.59;;;8.25;45.42
34237;BME280;20501;45.956;13.632;2023-01-29T08:57:53;101579.00;;;8.69;47.18
34237;BME280;20501;45.956;13.632;2023-01-29T09:00:19;101575.97;;;8.46;44.65
34237;BME280;20501;45.956;13.632;2023-01-29T09:02:44;101578.81;;;7.45;46.42
34237;BME280;20501;45.956;13.632;2023-01-29T09:05:10;101582.78;;;7.83;45.82
34237;BME280;20501;45.956;13.632;2023-01-29T09:07:35;101582.28;;;9.00;44.71
34237;BME280;20501;45.956;13.632;2023-01-29T09:10:01;101584.66;;;8.51;43.79
34237;BME280;20501;45.956;13.632;2023-01-29T09:12:26;101584.09;;;8.32;44.85
34237;BME280;20501;45.956;13.632;2023-01-29T09:14:52;101582.84;;;7.81;45.30
34237;BME280;20501;45.956;13.632;2023-01-29T09:17:18;101582.41;;;9.11;46.24
34237;BME280;20501;45.956;13.632;2023-01-29T09:19:43;101591.00;;;9.94;44.30
34237;BME280;20501;45.956;13.632;2023-01-29T09:22:09;101590.47;;;10.63;42.93
34237;BME280;20501;45.956;13.632;2023-01-29T09:24:34;101580.97;;;10.82;42.59
34237;BME280;20501;45.956;13.632;2023-01-29T09:27:00;101579.13;;;10.82;42.84
34237;BME280;20501;45.956;13.632;2023-01-29T09:29:25;101586.59;;;10.30;39.96
34237;BME280;20501;45.956;13.632;2023-01-29T09:31:51;101587.47;;;8.90;42.28
34237;BME280;20501;45.956;13.632;2023-01-29T09:34:16;101584.03;;;9.14;41.79
34237;BME280;20501;45.956;13.632;2023-01-29T09:36:42;101586.84;;;9.12;41.86
34237;BME280;20501;45.956;13.632;2023-01-29T09:39:07;101578.34;;;9.44;41.67
34237;BME280;20501;45.956;13.632;2023-01-29T09:44:15;101586.19;;;9.22;41.75
34237;BME280;20501;45.956;13.632;2023-01-29T09:46:46;101592.72;;;9.95;40.79
34237;BME280;20501;45.956;13.632;2023-01-29T09:51:50;101583.88;;;10.67;40.24
34237;BME280;20501;45.956;13.632;2023-01-29T09:54:23;101582.59;;;9.99;40.13
34237;BME280;20501;45.956;13.632;2023-01-29T09:56:55;101581.25;;;9.67;41.29
34237;BME280;20501;45.956;13.632;2023-01-29T09:59:26;101580.41;;;9.28;42.13
34237;BME280;20501;45.956;13.632;2023-01-29T10:02:09;101573.25;;;8.33;42.76
34237;BME280;20501;45.956;13.632;2023-01-29T10:10:20;101570.09;;;8.94;42.11
34237;BME280;20501;45.956;13.632;2023-01-29T10:12:57;101563.53;;;9.24;41.97
34237;BME280;20501;45.956;13.632;2023-01-29T10:15:46;101566.28;;;8.58;42.69
34237;BME280;20501;45.956;13.632;2023-01-29T10:23:46;101555.06;;;9.18;42.54
34237;BME280;20501;45.956;13.632;2023-01-29T10:26:15;101552.75;;;9.76;41.05
34237;BME280;20501;45.956;13.632;2023-01-29T10:28:42;101556.88;;;10.06;42.07
34237;BME280;20501;45.956;13.632;2023-01-29T10:31:28;101550.28;;;9.34;40.79
34237;BME280;20501;45.956;13.632;2023-01-29T10:34:13;101543.00;;;9.86;40.37
34237;BME280;20501;45.956;13.632;2023-01-29T10:36:48;101540.75;;;10.17;40.25
34237;BME280;20501;45.956;13.632;2023-01-29T10:39:16;101542.50;;;10.43;39.98
34237;BME280;20501;45.956;13.632;2023-01-29T10:50:27;101529.22;;;10.75;38.44
34237;BME280;20501;45.956;13.632;2023-01-29T10:58:35;101515.41;;;10.31;38.56
34237;BME280;20501;45.956;13.632;2023-01-29T11:01:02;101496.63;;;11.12;38.56
34237;BME280;20501;45.956;13.632;2023-01-29T11:03:30;101503.84;;;10.29;39.51
34237;BME280;20501;45.956;13.632;2023-01-29T11:08:54;101501.81;;;9.58;40.80
34237;BME280;20501;45.956;13.632;2023-01-29T11:11:19;101492.88;;;9.58;41.93
34237;BME280;20501;45.956;13.632;2023-01-29T11:14:03;101495.94;;;10.15;40.12
34237;BME280;20501;45.956;13.632;2023-01-29T11:16:40;101495.69;;;10.18;39.66
34237;BME280;20501;45.956;13.632;2023-01-29T11:19:06;101484.72;;;10.08;40.30
34237;BME280;20501;45.956;13.632;2023-01-29T11:21:31;101481.84;;;9.61;40.69
34237;BME280;20501;45.956;13.632;2023-01-29T11:24:14;101469.66;;;10.17;39.38
34237;BME280;20501;45.956;13.632;2023-01-29T11:26:45;101473.63;;;10.24;38.90
34237;BME280;20501;45.956;13.632;2023-01-29T11:29:46;101469.28;;;10.70;39.93
34237;BME280;20501;45.956;13.632;2023-01-29T11:35:18;101456.38;;;9.89;42.48
34237;BME280;20501;45.956;13.632;2023-01-29T11:37:45;101452.81;;;10.73;40.06
34237;BME280;20501;45.956;13.632;2023-01-29T11:42:43;101452.03;;;10.00;39.52
34237;BME280;20501;45.956;13.632;2023-01-29T11:45:25;101452.19;;;10.58;39.33
34237;BME280;20501;45.956;13.632;2023-01-29T11:47:53;101452.47;;;10.78;38.50
34237;BME280;20501;45.956;13.632;2023-01-29T11:50:23;101442.28;;;11.50;38.92
34237;BME280;20501;45.956;13.632;2023-01-29T11:52:49;101438.94;;;11.23;37.47
34237;BME280;20501;45.956;13.632;2023-01-29T11:55:23;101433.03;;;10.84;37.85
34237;BME280;20501;45.956;13.632;2023-01-29T12:00:25;101431.19;;;11.53;38.00
34237;BME280;20501;45.956;13.632;2023-01-29T12:05:26;101432.59;;;10.43;39.15
34237;BME280;20501;45.956;13.632;2023-01-29T12:07:59;101427.94;;;10.21;39.16
34237;BME280;20501;45.956;13.632;2023-01-29T12:10:30;101417.34;;;11.12;37.60
34237;BME280;20501;45.956;13.632;2023-01-29T12:15:37;101403.94;;;11.77;36.97
34237;BME280;20501;45.956;13.632;2023-01-29T12:18:14;101405.88;;;11.42;36.75
34237;BME280;20501;45.956;13.632;2023-01-29T12:20:50;101403.31;;;11.07;37.73
34237;BME280;20501;45.956;13.632;2023-01-29T12:23:43;101399.88;;;11.16;38.14
34237;BME280;20501;45.956;13.632;2023-01-29T12:26:36;101406.59;;;10.65;38.94
34237;BME280;20501;45.956;13.632;2023-01-29T12:29:36;101408.56;;;10.27;39.65
34237;BME280;20501;45.956;13.632;2023-01-29T12:34:43;101399.50;;;11.09;38.12
34237;BME280;20501;45.956;13.632;2023-01-29T12:37:24;101395.94;;;11.09;38.61
34237;BME280;20501;45.956;13.632;2023-01-29T12:40:15;101402.56;;;10.93;38.32
34237;BME280;20501;45.956;13.632;2023-01-29T12:42:46;101396.44;;;10.68;39.00
34237;BME280;20501;45.956;13.632;2023-01-29T12:45:21;101386.63;;;10.90;38.43
34237;BME280;20501;45.956;13.632;2023-01-29T12:47:51;101381.84;;;10.35;40.78
34237;BME280;20501;45.956;13.632;2023-01-29T12:50:31;101376.13;;;10.16;40.11
34237;BME280;20501;45.956;13.632;2023-01-29T12:53:15;101370.50;;;9.59;40.94
34237;BME280;20501;45.956;13.632;2023-01-29T12:55:50;101373.94;;;9.61;40.95
34237;BME280;20501;45.956;13.632;2023-01-29T12:58:28;101377.66;;;9.10;41.49
34237;BME280;20501;45.956;13.632;2023-01-29T13:01:00;101376.56;;;9.12;42.32
34237;BME280;20501;45.956;13.632;2023-01-29T13:03:49;101375.91;;;9.22;41.87
34237;BME280;20501;45.956;13.632;2023-01-29T13:06:43;101379.09;;;8.90;42.20
34237;BME280;20501;45.956;13.632;2023-01-29T13:09:16;101375.50;;;9.52;41.81
34237;BME280;20501;45.956;13.632;2023-01-29T13:11:54;101383.38;;;9.18;41.46
34237;BME280;20501;45.956;13.632;2023-01-29T13:17:12;101382.50;;;9.18;42.80
34237;BME280;20501;45.956;13.632;2023-01-29T13:19:42;101384.84;;;9.84;42.26
34237;BME280;20501;45.956;13.632;2023-01-29T13:22:27;101379.72;;;9.68;41.92
34237;BME280;20501;45.956;13.632;2023-01-29T13:24:53;101369.34;;;9.50;41.85
34237;BME280;20501;45.956;13.632;2023-01-29T13:27:25;101354.69;;;9.90;43.68
34237;BME280;20501;45.956;13.632;2023-01-29T13:29:53;101342.47;;;9.24;42.62
34237;BME280;20501;45.956;13.632;2023-01-29T13:32:22;101342.91;;;9.55;42.32
34237;BME280;20501;45.956;13.632;2023-01-29T13:34:50;101351.47;;;8.99;42.66
34237;BME280;20501;45.956;13.632;2023-01-29T13:37:23;101349.66;;;8.87;43.11
34237;BME280;20501;45.956;13.632;2023-01-29T13:39:54;101352.31;;;9.12;42.41
34237;BME280;20501;45.956;13.632;2023-01-29T13:42:23;101354.47;;;9.20;42.16
34237;BME280;20501;45.956;13.632;2023-01-29T13:44:54;101352.09;;;9.77;43.95
34237;BME280;20501;45.956;13.632;2023-01-29T13:47:47;101353.50;;;9.45;41.48
34237;BME280;20501;45.956;13.632;2023-01-29T13:50:36;101356.88;;;9.36;41.79
34237;BME280;20501;45.956;13.632;2023-01-29T13:53:05;101359.81;;;9.33;42.89
34237;BME280;20501;45.956;13.632;2023-01-29T13:57:59;101342.00;;;10.03;41.78
34237;BME280;20501;45.956;13.632;2023-01-29T14:07:56;101332.34;;;8.78;44.33
34237;BME280;20501;45.956;13.632;2023-01-29T14:10:24;101329.75;;;8.76;43.68
34237;BME280;20501;45.956;13.632;2023-01-29T14:12:51;101338.38;;;8.30;43.98
34237;BME280;20501;45.956;13.632;2023-01-29T14:15:25;101329.38;;;9.07;43.81
34237;BME280;20501;45.956;13.632;2023-01-29T14:20:40;101329.97;;;8.86;43.56
34237;BME280;20501;45.956;13.632;2023-01-29T14:23:35;101326.94;;;8.26;43.84
34237;BME280;20501;45.956;13.632;2023-01-29T14:26:33;101331.84;;;7.94;44.91
34237;BME280;20501;45.956;13.632;2023-01-29T14:34:30;101319.81;;;8.12;44.16
34237;BME280;20501;45.956;13.632;2023-01-29T14:37:02;101320.41;;;7.77;45.17
34237;BME280;20501;45.956;13.632;2023-01-29T14:39:55;101329.72;;;7.99;44.99
34237;BME280;20501;45.956;13.632;2023-01-29T14:53:02;101328.50;;;7.90;44.64
34237;BME280;20501;45.956;13.632;2023-01-29T14:58:00;101333.56;;;7.82;45.84
34237;BME280;20501;45.956;13.632;2023-01-29T15:00:29;101335.28;;;7.83;45.24
34237;BME280;20501;45.956;13.632;2023-01-29T15:02:56;101336.97;;;7.71;45.85
34237;BME280;20501;45.956;13.632;2023-01-29T15:05:26;101338.13;;;7.67;45.72
34237;BME280;20501;45.956;13.632;2023-01-29T15:08:02;101338.97;;;7.54;45.74